createdAt,value
2018-09-06T00:01:08.358Z,99.900002
2018-09-06T00:06:11.723Z,99.900002
2018-09-06T00:11:12.928Z,99.900002
2018-09-06T00:16:15.223Z,99.900002
2018-09-06T00:21:17.460Z,99.900002
2018-09-06T00:26:21.323Z,99.900002
2018-09-06T00:31:22.062Z,99.900002
2018-09-06T00:36:24.486Z,99.900002
2018-09-06T00:41:26.653Z,99.900002
2018-09-06T00:46:28.903Z,99.900002
2018-09-06T00:51:31.312Z,99.900002
2018-09-06T00:56:33.585Z,99.900002
2018-09-06T01:01:35.879Z,99.900002
2018-09-06T01:06:38.189Z,99.900002
2018-09-06T01:11:40.506Z,99.900002
2018-09-06T01:16:42.858Z,99.900002
2018-09-06T01:21:45.138Z,99.900002
2018-09-06T01:26:47.368Z,99.900002
2018-09-06T01:31:49.649Z,99.900002
2018-09-06T01:36:51.997Z,99.900002
2018-09-06T01:41:55.676Z,99.900002
2018-09-06T01:46:56.577Z,99.900002
2018-09-06T01:51:58.896Z,99.900002
2018-09-06T01:57:01.169Z,99.900002
2018-09-06T02:02:03.342Z,99.900002
2018-09-06T02:07:05.756Z,99.900002
2018-09-06T02:12:07.930Z,99.900002
2018-09-06T02:17:10.292Z,99.900002
2018-09-06T02:22:12.685Z,99.900002
2018-09-06T02:27:14.901Z,99.900002
2018-09-06T02:32:17.108Z,99.900002
2018-09-06T02:37:19.396Z,99.900002
2018-09-06T02:42:21.756Z,99.900002
2018-09-06T02:47:24.128Z,99.900002
2018-09-06T02:52:26.340Z,99.900002
2018-09-06T02:57:28.650Z,99.900002
2018-09-06T03:02:30.902Z,99.900002
2018-09-06T03:07:33.215Z,99.900002
2018-09-06T03:12:35.471Z,99.900002
2018-09-06T03:17:37.957Z,99.900002
2018-09-06T03:22:40.169Z,99.900002
2018-09-06T03:27:42.467Z,99.900002
2018-09-06T03:32:44.692Z,99.900002
2018-09-06T03:37:46.980Z,99.900002
2018-09-06T03:42:49.264Z,99.900002
2018-09-06T03:47:51.708Z,99.900002
2018-09-06T03:52:53.826Z,99.900002
2018-09-06T04:02:58.413Z,99.900002
2018-09-06T04:08:00.809Z,99.900002
2018-09-06T04:13:03.059Z,99.900002
2018-09-06T04:18:05.361Z,99.900002
2018-09-06T04:23:07.658Z,99.900002
2018-09-06T04:28:09.873Z,99.900002
2018-09-06T04:33:12.245Z,99.900002
2018-09-06T04:38:14.530Z,99.900002
2018-09-06T04:43:16.875Z,99.900002
2018-09-06T04:48:19.073Z,99.900002
2018-09-06T04:53:21.481Z,99.900002
2018-09-06T04:58:23.896Z,99.900002
2018-09-06T05:03:26.032Z,99.900002
2018-09-06T05:08:28.265Z,99.900002
2018-09-06T05:13:30.546Z,99.900002
2018-09-06T05:18:32.920Z,99.900002
2018-09-06T05:23:35.117Z,99.900002
2018-09-06T05:28:37.455Z,99.900002
2018-09-06T05:33:39.770Z,99.900002
2018-09-06T05:38:42.076Z,99.900002
2018-09-06T05:43:44.352Z,99.900002
2018-09-06T05:48:46.800Z,99.900002
2018-09-06T05:53:48.999Z,99.900002
2018-09-06T05:58:52.646Z,99.900002
2018-09-06T06:03:53.624Z,99.900002
2018-09-06T06:08:55.848Z,99.900002
2018-09-06T06:13:58.153Z,99.900002
2018-09-06T06:19:00.362Z,99.900002
2018-09-06T06:24:02.729Z,99.900002
2018-09-06T06:29:05.030Z,99.900002
2018-09-06T06:34:07.473Z,99.900002
2018-09-06T06:39:09.970Z,99.900002
2018-09-06T06:44:11.923Z,99.900002
2018-09-06T06:49:14.202Z,99.900002
2018-09-06T06:54:16.538Z,99.900002
2018-09-06T06:59:18.766Z,99.900002
2018-09-06T07:04:21.226Z,99.900002
2018-09-06T07:09:23.426Z,99.900002
2018-09-06T07:14:25.736Z,99.900002
2018-09-06T07:19:28.019Z,99.900002
2018-09-06T07:24:30.284Z,99.900002
2018-09-06T07:29:32.502Z,99.900002
2018-09-06T07:34:34.820Z,99.900002
2018-09-06T07:39:37.147Z,99.900002
2018-09-06T07:44:39.434Z,99.900002
2018-09-06T07:49:41.850Z,99.900002
2018-09-06T07:54:44.028Z,99.900002
2018-09-06T07:59:46.311Z,99.900002
2018-09-06T08:04:48.732Z,99.900002
2018-09-06T08:09:51.137Z,99.900002
2018-09-06T08:14:53.266Z,99.900002
2018-09-06T08:19:55.871Z,99.900002
2018-09-06T08:24:57.775Z,99.900002
2018-09-06T08:30:00.086Z,99.900002
2018-09-06T08:35:02.338Z,99.900002
2018-09-06T08:40:04.596Z,99.900002
2018-09-06T08:45:07.061Z,99.900002
2018-09-06T08:50:09.210Z,99.900002
2018-09-06T08:55:11.604Z,97.300003
2018-09-06T09:00:13.815Z,97.599998
2018-09-06T09:05:16.208Z,98.099998
2018-09-06T09:10:18.495Z,98
2018-09-06T09:15:20.750Z,98.199997
2018-09-06T09:20:23.141Z,99.400002
2018-09-06T09:25:25.324Z,99.900002
2018-09-06T09:30:27.679Z,99.599998
2018-09-06T09:35:29.884Z,97.199997
2018-09-06T09:40:32.279Z,97.300003
2018-09-06T09:45:34.533Z,99.300003
2018-09-06T09:51:06.882Z,97.099998
2018-09-06T09:55:39.202Z,95.900002
2018-09-06T10:00:41.400Z,96.199997
2018-09-06T10:05:43.694Z,93.599998
2018-09-06T10:10:47.102Z,89
2018-09-06T10:15:48.381Z,85.900002
2018-09-06T10:20:50.565Z,83.699997
2018-09-06T10:25:52.838Z,81.599998
2018-09-06T10:30:55.071Z,78.099998
2018-09-06T10:35:57.532Z,84.699997
2018-09-06T10:40:59.713Z,70.800003
2018-09-06T10:46:02.008Z,69.300003
2018-09-06T10:51:04.351Z,62.299999
2018-09-06T10:56:06.654Z,68.900002
2018-09-06T11:01:08.911Z,59.700001
2018-09-06T11:06:11.267Z,57.099998
2018-09-06T11:11:13.557Z,56.299999
2018-09-06T11:16:15.871Z,47.200001
2018-09-06T11:21:18.206Z,56.299999
2018-09-06T11:26:20.432Z,46.900002
2018-09-06T11:31:22.678Z,51.5
2018-09-06T11:36:25.005Z,48.400002
2018-09-06T11:41:27.281Z,47.799999
2018-09-06T11:46:29.616Z,46.200001
2018-09-06T11:51:31.951Z,49.099998
2018-09-06T11:56:34.187Z,52.200001
2018-09-06T12:01:36.429Z,56.700001
2018-09-06T12:06:38.741Z,61
2018-09-06T12:11:41.009Z,64.599998
2018-09-06T12:16:43.341Z,68.099998
2018-09-06T12:21:45.637Z,63.599998
2018-09-06T12:26:47.888Z,64.400002
2018-09-06T12:31:50.213Z,57
2018-09-06T12:36:52.513Z,53.200001
2018-09-06T12:41:54.792Z,56.400002
2018-09-06T12:46:57.195Z,56.400002
2018-09-06T12:51:59.386Z,57.700001
2018-09-06T12:57:01.656Z,57.299999
2018-09-06T13:02:04.008Z,59
2018-09-06T13:07:06.271Z,62.299999
2018-09-06T13:12:08.586Z,53.099998
2018-09-06T13:17:10.835Z,51.299999
2018-09-06T13:22:13.167Z,51.599998
2018-09-06T13:27:15.576Z,52.5
2018-09-06T13:32:17.784Z,55.099998
2018-09-06T13:37:19.991Z,53.799999
2018-09-06T13:42:22.418Z,52.400002
2018-09-06T13:47:24.674Z,49.700001
2018-09-06T13:52:26.937Z,48.900002
2018-09-06T13:57:29.240Z,48.200001
2018-09-06T14:02:31.537Z,50
2018-09-06T14:07:33.983Z,47.400002
2018-09-06T14:12:36.151Z,49.200001
2018-09-06T14:17:38.434Z,54
2018-09-06T14:22:40.910Z,50.299999
2018-09-06T14:27:42.923Z,53.200001
2018-09-06T14:32:46.405Z,54.900002
2018-09-06T14:37:47.537Z,58
2018-09-06T14:42:49.794Z,61.900002
2018-09-06T14:47:52.206Z,61.099998
2018-09-06T14:52:54.549Z,61.099998
2018-09-06T14:57:56.824Z,62.599998
2018-09-06T15:02:59.124Z,63.099998
2018-09-06T15:08:01.431Z,61.099998
2018-09-06T15:13:03.726Z,61.099998
2018-09-06T15:18:05.877Z,61.900002
2018-09-06T15:23:08.447Z,58.299999
2018-09-06T15:28:10.502Z,61.599998
2018-09-06T15:33:12.807Z,62.400002
2018-09-06T15:38:15.132Z,61.700001
2018-09-06T15:43:17.713Z,60.200001
2018-09-06T15:48:19.753Z,60.5
2018-09-06T15:53:22.066Z,60.5
2018-09-06T15:58:24.212Z,60.5
2018-09-06T16:03:26.580Z,61.099998
2018-09-06T16:08:28.942Z,62.700001
2018-09-06T16:13:31.212Z,62.299999
2018-09-06T16:18:33.491Z,61.599998
2018-09-06T16:23:35.805Z,58.900002
2018-09-06T16:28:38.074Z,59.400002
2018-09-06T16:33:40.392Z,61.5
2018-09-06T16:38:42.682Z,67.099998
2018-09-06T16:43:44.938Z,66.099998
2018-09-06T16:48:47.197Z,66
2018-09-06T16:53:49.579Z,68.300003
2018-09-06T16:58:51.802Z,67.400002
2018-09-06T17:03:54.144Z,68.900002
2018-09-06T17:08:56.446Z,68.199997
2018-09-06T17:13:58.700Z,68.300003
2018-09-06T17:19:00.998Z,69.800003
2018-09-06T17:24:03.244Z,69.300003
2018-09-06T17:29:05.573Z,70.300003
2018-09-06T17:34:07.949Z,69.199997
2018-09-06T17:39:10.376Z,69.099998
2018-09-06T17:44:14.775Z,69.800003
2018-09-06T17:49:14.809Z,71.900002
2018-09-06T17:54:17.116Z,72.199997
2018-09-06T17:59:19.374Z,73.5
2018-09-06T18:04:21.613Z,74.699997
2018-09-06T18:09:23.978Z,75.699997
2018-09-06T18:14:26.221Z,76.400002
2018-09-06T18:19:29.766Z,74.699997
2018-09-06T18:24:30.820Z,75
2018-09-06T18:29:33.223Z,76.599998
2018-09-06T18:34:35.442Z,78.400002
2018-09-06T18:39:37.792Z,77.900002
2018-09-06T18:44:40.035Z,77.099998
2018-09-06T18:49:42.537Z,79
2018-09-06T18:54:44.878Z,78
2018-09-06T18:59:46.874Z,80.199997
2018-09-06T19:04:49.242Z,79.099998
2018-09-06T19:09:51.541Z,78.300003
2018-09-06T19:14:53.790Z,78.199997
2018-09-06T19:19:56.064Z,78.800003
2018-09-06T19:24:58.341Z,78.800003
2018-09-06T19:30:01.436Z,79.5
2018-09-06T19:35:03.047Z,79.699997
2018-09-06T19:40:05.254Z,79.800003
2018-09-06T19:45:07.605Z,79.699997
2018-09-06T19:50:09.999Z,80.900002
2018-09-06T19:55:12.148Z,80.800003
2018-09-06T20:00:14.595Z,82.099998
2018-09-06T20:05:16.839Z,81.199997
2018-09-06T20:10:18.931Z,81.699997
2018-09-06T20:15:21.310Z,82
2018-09-06T20:20:23.562Z,82.699997
2018-09-06T20:25:25.889Z,83.199997
2018-09-06T20:30:28.267Z,83.5
2018-09-06T20:35:30.422Z,84.800003
2018-09-06T20:40:32.793Z,85.5
2018-09-06T20:45:35.126Z,85.400002
2018-09-06T20:50:37.345Z,85.599998
2018-09-06T20:55:39.956Z,86
2018-09-06T21:00:41.969Z,86.400002
2018-09-06T21:05:45.620Z,87.199997
2018-09-06T21:10:46.584Z,87.099998
2018-09-06T21:15:48.883Z,87.5
2018-09-06T21:20:51.196Z,87.800003
2018-09-06T21:25:53.834Z,88.199997
2018-09-06T21:30:55.736Z,88
2018-09-06T21:35:57.990Z,88.199997
2018-09-06T21:41:00.329Z,88.5
2018-09-06T21:46:02.720Z,88.400002
2018-09-06T21:51:04.870Z,89.300003
2018-09-06T21:56:07.265Z,89.5
2018-09-06T22:01:09.555Z,89.300003
2018-09-06T22:06:11.849Z,90.400002
2018-09-06T22:11:14.099Z,91
2018-09-06T22:16:16.301Z,91.199997
2018-09-06T22:21:18.694Z,90.5
2018-09-06T22:26:20.916Z,91.5
2018-09-06T22:31:24.638Z,92.099998
2018-09-06T22:36:25.643Z,92.300003
2018-09-06T22:41:28.057Z,92.199997
2018-09-06T22:46:30.225Z,93.199997
2018-09-06T22:51:32.374Z,93.400002
2018-09-06T22:56:34.776Z,93.900002
2018-09-06T23:01:37.116Z,94.199997
2018-09-06T23:06:39.384Z,94.099998
2018-09-06T23:11:41.641Z,93.5
2018-09-06T23:16:43.948Z,93
2018-09-06T23:21:46.222Z,92.199997
2018-09-06T23:26:48.638Z,92.099998
2018-09-06T23:31:50.795Z,92.199997
2018-09-06T23:36:53.091Z,92
2018-09-06T23:41:55.389Z,92.099998
2018-09-06T23:46:57.650Z,92.400002
2018-09-06T23:51:59.957Z,92.400002
2018-09-06T23:57:02.343Z,92.5
